createdAt,value
2023-02-17T00:01:35.217Z,32.90
2023-02-17T00:04:02.751Z,33.10
2023-02-17T00:06:32.636Z,31.85
2023-02-17T00:09:00.721Z,29.55
2023-02-17T00:11:28.632Z,33.05
2023-02-17T00:13:56.692Z,32.88
2023-02-17T00:16:26.396Z,33.17
2023-02-17T00:18:56.546Z,32.58
2023-02-17T00:21:25.811Z,35.85
2023-02-17T00:23:53.944Z,33.38
2023-02-17T00:26:21.340Z,34.00
2023-02-17T00:28:49.032Z,31.67
2023-02-17T00:31:19.303Z,30.83
2023-02-17T00:33:46.530Z,30.20
2023-02-17T00:36:18.141Z,31.23
2023-02-17T00:38:45.712Z,30.00
2023-02-17T00:41:13.395Z,30.35
2023-02-17T00:43:40.684Z,30.70
2023-02-17T00:46:08.425Z,30.75
2023-02-17T00:48:37.874Z,33.13
2023-02-17T00:51:05.530Z,32.42
2023-02-17T00:53:32.481Z,32.17
2023-02-17T00:56:00.114Z,31.63
2023-02-17T00:58:27.227Z,30.85
2023-02-17T01:00:58.515Z,31.35
2023-02-17T01:03:26.823Z,31.17
2023-02-17T01:05:55.224Z,30.13
2023-02-17T01:08:25.830Z,29.63
2023-02-17T01:10:53.268Z,28.55
2023-02-17T01:13:22.892Z,29.25
2023-02-17T01:15:54.757Z,28.55
2023-02-17T01:18:26.262Z,26.75
2023-02-17T01:20:53.338Z,28.52
2023-02-17T01:23:20.299Z,29.08
2023-02-17T01:25:51.136Z,28.92
2023-02-17T01:28:21.354Z,29.73
2023-02-17T01:30:50.849Z,29.40
2023-02-17T01:33:22.303Z,29.92
2023-02-17T01:35:49.952Z,30.63
2023-02-17T01:38:17.601Z,29.58
2023-02-17T01:40:48.620Z,29.73
2023-02-17T01:43:18.072Z,28.52
2023-02-17T01:45:56.270Z,28.90
2023-02-17T01:48:29.890Z,27.63
2023-02-17T01:51:03.834Z,28.08
2023-02-17T01:54:01.479Z,27.50
2023-02-17T01:56:30.366Z,28.10
2023-02-17T01:59:12.718Z,27.80
2023-02-17T02:01:40.147Z,27.15
2023-02-17T02:04:08.199Z,26.55
2023-02-17T02:06:36.952Z,28.02
2023-02-17T02:09:20.953Z,27.48
2023-02-17T02:11:49.688Z,28.02
2023-02-17T02:14:17.374Z,27.50
2023-02-17T02:17:07.807Z,27.23
2023-02-17T02:20:09.090Z,28.08
2023-02-17T02:23:04.039Z,28.33
2023-02-17T02:28:43.309Z,27.27
2023-02-17T02:31:42.890Z,26.40
2023-02-17T02:34:22.154Z,27.33
2023-02-17T02:37:01.153Z,26.80
2023-02-17T02:39:34.645Z,25.65
2023-02-17T02:42:05.289Z,26.40
2023-02-17T02:44:33.167Z,25.13
2023-02-17T02:47:06.023Z,25.70
2023-02-17T02:49:35.604Z,26.65
2023-02-17T02:52:17.852Z,26.20
2023-02-17T02:54:57.841Z,25.63
2023-02-17T02:57:59.752Z,25.05
2023-02-17T03:01:01.582Z,24.58
2023-02-17T03:03:36.324Z,23.95
2023-02-17T03:06:08.732Z,24.17
2023-02-17T03:08:39.526Z,24.55
2023-02-17T03:11:06.882Z,24.55
2023-02-17T03:13:38.191Z,24.48
2023-02-17T03:16:06.632Z,23.88
2023-02-17T03:18:34.262Z,23.63
2023-02-17T03:21:07.487Z,22.80
2023-02-17T03:23:34.334Z,24.38
2023-02-17T03:26:01.050Z,23.27
2023-02-17T03:28:27.720Z,24.15
2023-02-17T03:30:54.872Z,24.30
2023-02-17T03:33:21.852Z,24.30
2023-02-17T03:35:48.528Z,24.00
2023-02-17T03:38:16.087Z,23.77
2023-02-17T03:40:42.738Z,23.67
2023-02-17T03:43:09.496Z,23.08
2023-02-17T03:45:37.951Z,23.17
2023-02-17T03:48:04.992Z,21.75
2023-02-17T03:50:32.203Z,22.67
2023-02-17T03:52:58.861Z,23.45
2023-02-17T03:55:25.623Z,23.08
2023-02-17T03:57:52.648Z,23.25
2023-02-17T04:00:19.935Z,23.30
2023-02-17T04:02:46.577Z,23.83
2023-02-17T04:05:13.355Z,23.15
2023-02-17T04:07:40.334Z,23.42
2023-02-17T04:10:09.502Z,22.67
2023-02-17T04:12:36.383Z,22.80
2023-02-17T04:15:03.288Z,23.95
2023-02-17T04:17:29.992Z,25.02
2023-02-17T04:19:56.946Z,24.98
2023-02-17T04:22:23.628Z,24.17
2023-02-17T04:24:50.348Z,23.30
2023-02-17T04:27:17.108Z,23.38
2023-02-17T04:29:44.187Z,24.58
2023-02-17T04:32:10.996Z,22.25
2023-02-17T04:34:37.856Z,22.65
2023-02-17T04:37:04.687Z,21.88
2023-02-17T04:39:31.685Z,22.25
2023-02-17T04:41:58.968Z,22.08
2023-02-17T04:44:25.788Z,21.48
2023-02-17T04:46:52.434Z,22.45
2023-02-17T04:49:19.313Z,21.77
2023-02-17T04:51:46.342Z,21.70
2023-02-17T04:54:12.999Z,21.55
2023-02-17T04:56:39.647Z,21.30
2023-02-17T04:59:06.341Z,20.90
2023-02-17T05:01:33.389Z,21.08
2023-02-17T05:04:00.105Z,21.30
2023-02-17T05:06:26.807Z,21.80
2023-02-17T05:08:54.391Z,21.98
2023-02-17T05:11:21.083Z,21.50
2023-02-17T05:13:47.763Z,21.30
2023-02-17T05:16:14.967Z,21.95
2023-02-17T05:18:42.279Z,21.42
2023-02-17T05:21:09.099Z,21.33
2023-02-17T05:23:41.385Z,20.77
2023-02-17T05:26:11.608Z,20.85
2023-02-17T05:28:38.562Z,20.38
2023-02-17T05:31:05.661Z,19.40
2023-02-17T05:33:32.717Z,19.55
2023-02-17T05:36:04.548Z,19.27
2023-02-17T05:38:31.654Z,18.23
2023-02-17T05:40:58.590Z,18.33
2023-02-17T05:43:25.656Z,18.33
2023-02-17T05:45:52.401Z,18.67
2023-02-17T05:48:19.449Z,18.10
2023-02-17T05:50:46.617Z,17.67
2023-02-17T05:53:13.387Z,16.75
2023-02-17T05:55:40.383Z,17.58
2023-02-17T05:58:07.134Z,16.85
2023-02-17T06:00:33.943Z,16.25
2023-02-17T06:03:00.814Z,16.40
2023-02-17T06:05:27.807Z,15.85
2023-02-17T06:07:54.446Z,15.68
2023-02-17T06:10:21.602Z,15.07
2023-02-17T06:12:48.394Z,15.60
2023-02-17T06:15:15.359Z,15.27
2023-02-17T06:17:42.426Z,15.50
2023-02-17T06:20:09.854Z,15.15
2023-02-17T06:22:37.301Z,16.77
2023-02-17T06:25:04.268Z,14.93
2023-02-17T06:27:31.478Z,14.07
2023-02-17T06:29:58.174Z,14.35
2023-02-17T06:32:24.953Z,13.75
2023-02-17T06:34:51.886Z,14.18
2023-02-17T06:37:18.821Z,13.95
2023-02-17T06:39:45.515Z,13.40
2023-02-17T06:42:12.327Z,12.95
2023-02-17T06:44:39.757Z,13.60
2023-02-17T06:47:06.537Z,13.38
2023-02-17T06:49:33.264Z,13.27
2023-02-17T06:51:59.933Z,12.82
2023-02-17T06:54:26.871Z,13.38
2023-02-17T06:56:54.016Z,12.85
2023-02-17T06:59:21.224Z,13.07
2023-02-17T07:01:50.127Z,13.73
2023-02-17T07:04:16.961Z,12.93
2023-02-17T07:06:44.388Z,12.63
2023-02-17T07:09:13.941Z,12.32
2023-02-17T07:11:44.614Z,11.73
2023-02-17T07:14:11.565Z,11.52
2023-02-17T07:16:39.722Z,11.10
2023-02-17T07:19:06.684Z,11.20
2023-02-17T07:21:36.658Z,11.23
2023-02-17T07:24:04.918Z,10.82
2023-02-17T07:26:32.198Z,11.10
2023-02-17T07:28:59.647Z,10.80
2023-02-17T07:31:27.299Z,9.82
2023-02-17T07:33:54.183Z,10.02
2023-02-17T07:36:21.218Z,9.85
2023-02-17T07:38:48.746Z,9.57
2023-02-17T07:41:21.633Z,9.80
2023-02-17T07:43:49.763Z,10.10
2023-02-17T07:46:17.336Z,9.63
2023-02-17T07:48:44.725Z,8.48
2023-02-17T07:51:14.006Z,8.43
2023-02-17T07:53:40.999Z,8.23
2023-02-17T07:56:10.006Z,8.02
2023-02-17T07:58:38.467Z,8.05
2023-02-17T08:01:10.166Z,8.23
2023-02-17T08:03:37.870Z,8.18
2023-02-17T08:06:05.825Z,7.28
2023-02-17T08:08:53.016Z,7.10
2023-02-17T08:11:38.410Z,7.07
2023-02-17T08:14:05.853Z,6.68
2023-02-17T08:16:32.753Z,6.53
2023-02-17T08:18:59.600Z,6.28
2023-02-17T08:21:27.919Z,6.60
2023-02-17T08:23:55.743Z,6.20
2023-02-17T08:26:23.594Z,6.40
2023-02-17T08:28:50.897Z,6.47
2023-02-17T08:31:29.925Z,6.20
2023-02-17T08:33:57.088Z,6.38
2023-02-17T08:36:25.192Z,6.30
2023-02-17T08:38:53.952Z,6.25
2023-02-17T08:41:32.311Z,5.90
2023-02-17T08:44:01.081Z,6.32
2023-02-17T08:46:29.748Z,6.50
2023-02-17T08:48:57.035Z,6.43
2023-02-17T08:51:26.377Z,6.18
2023-02-17T08:53:55.672Z,6.30
2023-02-17T08:56:26.064Z,6.28
2023-02-17T08:58:53.517Z,5.97
2023-02-17T09:01:21.647Z,6.57
2023-02-17T09:03:50.146Z,6.50
2023-02-17T09:06:19.128Z,6.10
2023-02-17T09:08:46.569Z,6.30
2023-02-17T09:11:15.815Z,6.18
2023-02-17T09:13:45.320Z,6.38
2023-02-17T09:16:12.312Z,6.65
2023-02-17T09:18:39.301Z,7.10
2023-02-17T09:21:12.041Z,6.70
2023-02-17T09:23:39.243Z,6.50
2023-02-17T09:26:08.503Z,5.80
2023-02-17T09:28:36.967Z,6.05
2023-02-17T09:31:12.322Z,6.93
2023-02-17T09:33:41.072Z,7.05
2023-02-17T09:36:09.600Z,6.43
2023-02-17T09:38:40.582Z,6.78
2023-02-17T09:41:23.300Z,6.10
2023-02-17T09:43:54.955Z,7.07
2023-02-17T09:46:55.818Z,6.95
2023-02-17T09:49:33.634Z,6.45
2023-02-17T09:52:03.576Z,6.20
2023-02-17T09:55:09.322Z,5.72
2023-02-17T09:57:40.586Z,5.68
2023-02-17T10:00:18.203Z,6.05
2023-02-17T10:03:12.618Z,5.68
2023-02-17T10:05:44.624Z,5.57
2023-02-17T10:08:19.665Z,5.38
2023-02-17T10:10:53.614Z,5.00
2023-02-17T10:13:22.860Z,5.05
2023-02-17T10:15:53.137Z,5.03
2023-02-17T10:18:40.272Z,5.40
2023-02-17T10:21:13.435Z,5.57
2023-02-17T10:23:40.688Z,5.40
2023-02-17T10:26:16.993Z,4.90
2023-02-17T10:28:58.653Z,4.43
2023-02-17T10:32:04.146Z,4.90
2023-02-17T10:34:37.966Z,4.38
2023-02-17T10:37:17.455Z,4.63
2023-02-17T10:39:52.273Z,5.13
2023-02-17T10:42:35.875Z,4.53
2023-02-17T10:45:31.749Z,4.15
2023-02-17T10:48:14.817Z,4.82
2023-02-17T10:50:43.410Z,4.43
2023-02-17T10:53:23.184Z,4.60
2023-02-17T10:56:18.657Z,4.35
2023-02-17T10:59:11.153Z,5.53
2023-02-17T11:01:41.472Z,4.30
2023-02-17T11:04:19.949Z,4.13
2023-02-17T11:06:53.410Z,4.50
2023-02-17T11:12:47.803Z,3.63
2023-02-17T11:15:45.367Z,4.35
2023-02-17T11:18:27.580Z,4.38
2023-02-17T11:21:12.942Z,4.30
2023-02-17T11:24:15.156Z,4.70
2023-02-17T11:26:45.562Z,4.35
2023-02-17T11:29:18.530Z,3.90
2023-02-17T11:32:16.582Z,4.03
2023-02-17T11:34:44.412Z,4.20
2023-02-17T11:37:14.622Z,3.95
2023-02-17T11:39:49.754Z,4.13
2023-02-17T11:42:28.401Z,6.97
2023-02-17T11:45:00.705Z,8.63
2023-02-17T11:47:49.106Z,5.78
2023-02-17T11:50:41.561Z,6.75
2023-02-17T11:53:31.655Z,6.53
2023-02-17T11:56:20.264Z,7.50
2023-02-17T11:59:11.160Z,6.85
2023-02-17T12:01:50.646Z,4.38
2023-02-17T12:05:07.657Z,3.95
2023-02-17T12:08:00.317Z,3.42
2023-02-17T12:10:50.268Z,3.42
2023-02-17T12:13:56.999Z,3.88
2023-02-17T12:16:52.483Z,3.60
2023-02-17T12:19:48.314Z,4.45
2023-02-17T12:22:20.899Z,3.97
2023-02-17T12:25:09.785Z,3.85
2023-02-17T12:28:06.623Z,3.60
2023-02-17T12:30:41.888Z,3.83
2023-02-17T12:33:30.213Z,3.75
2023-02-17T12:36:02.000Z,3.20
2023-02-17T12:38:39.348Z,2.97
2023-02-17T12:41:11.203Z,3.10
2023-02-17T12:44:08.131Z,2.92
2023-02-17T12:46:40.555Z,3.05
2023-02-17T12:49:19.123Z,2.95
2023-02-17T12:51:54.434Z,2.40
2023-02-17T12:54:30.833Z,2.50
2023-02-17T12:57:57.364Z,2.70
2023-02-17T13:00:28.336Z,2.45
2023-02-17T13:03:03.221Z,2.25
2023-02-17T13:05:44.342Z,2.38
2023-02-17T13:08:16.926Z,2.50
2023-02-17T13:10:44.362Z,2.22
2023-02-17T13:13:14.648Z,2.63
2023-02-17T13:15:44.439Z,2.47
2023-02-17T13:18:50.018Z,2.58
2023-02-17T13:21:29.717Z,2.15
2023-02-17T13:24:02.344Z,2.15
2023-02-17T13:26:35.098Z,2.17
2023-02-17T13:29:22.583Z,2.13
2023-02-17T13:31:55.635Z,1.92
2023-02-17T13:34:35.111Z,1.80
2023-02-17T13:37:35.547Z,2.00
2023-02-17T13:40:16.532Z,2.17
2023-02-17T13:42:51.400Z,2.40
2023-02-17T13:45:40.093Z,3.00
2023-02-17T13:48:27.914Z,3.20
2023-02-17T13:51:05.925Z,2.50
2023-02-17T13:53:42.283Z,2.28
2023-02-17T13:56:24.272Z,2.42
2023-02-17T13:58:51.790Z,1.98
2023-02-17T14:01:25.790Z,3.17
2023-02-17T14:03:55.485Z,2.30
2023-02-17T14:06:28.746Z,2.08
2023-02-17T14:08:57.529Z,2.17
2023-02-17T14:11:29.459Z,2.00
2023-02-17T14:13:58.352Z,2.42
2023-02-17T14:16:30.565Z,2.10
2023-02-17T14:19:04.968Z,1.60
2023-02-17T14:21:32.281Z,1.63
2023-02-17T14:24:03.951Z,1.58
2023-02-17T14:26:42.939Z,1.60
2023-02-17T14:29:15.186Z,1.60
2023-02-17T14:31:46.778Z,1.77
2023-02-17T14:34:35.244Z,1.50
2023-02-17T14:37:22.566Z,1.70
2023-02-17T14:39:49.828Z,1.40
2023-02-17T14:42:33.898Z,1.70
2023-02-17T14:45:04.375Z,1.63
2023-02-17T14:47:33.873Z,1.33
2023-02-17T14:50:01.364Z,1.40
2023-02-17T14:52:28.702Z,1.25
2023-02-17T14:55:00.806Z,1.23
2023-02-17T14:57:28.584Z,1.10
2023-02-17T14:59:58.187Z,1.20
2023-02-17T15:02:25.287Z,1.45
2023-02-17T15:04:52.144Z,1.27
2023-02-17T15:07:23.920Z,1.42
2023-02-17T15:09:50.637Z,1.20
2023-02-17T15:12:21.180Z,1.00
2023-02-17T15:14:55.477Z,1.20
2023-02-17T15:19:49.802Z,0.95
2023-02-17T15:22:16.858Z,1.05
2023-02-17T15:24:43.967Z,1.52
2023-02-17T15:27:13.642Z,1.20
2023-02-17T15:29:41.588Z,1.42
2023-02-17T15:32:21.677Z,1.38
2023-02-17T15:34:48.508Z,2.22
2023-02-17T15:37:15.588Z,2.03
2023-02-17T15:39:42.872Z,2.45
2023-02-17T15:42:13.843Z,3.35
2023-02-17T15:44:47.369Z,2.45
2023-02-17T15:47:17.674Z,1.40
2023-02-17T15:49:44.797Z,1.20
2023-02-17T15:52:13.619Z,1.10
2023-02-17T15:54:43.901Z,1.70
2023-02-17T15:57:21.292Z,1.50
2023-02-17T15:59:48.381Z,2.00
2023-02-17T16:02:22.068Z,1.60
2023-02-17T16:04:49.245Z,1.45
2023-02-17T16:07:16.535Z,1.40
2023-02-17T16:09:45.154Z,0.90
2023-02-17T16:12:18.616Z,0.80
2023-02-17T16:14:46.710Z,1.30
2023-02-17T16:17:17.869Z,0.70
2023-02-17T16:19:46.216Z,0.68
2023-02-17T16:22:13.882Z,1.00
2023-02-17T16:24:41.066Z,0.90
2023-02-17T16:27:11.137Z,3.58
2023-02-17T16:29:37.895Z,1.10
2023-02-17T16:32:04.825Z,0.95
2023-02-17T16:34:33.786Z,1.17
2023-02-17T16:37:08.046Z,1.00
2023-02-17T16:39:35.664Z,0.88
2023-02-17T16:42:02.989Z,1.25
2023-02-17T16:44:29.912Z,1.70
2023-02-17T16:46:57.351Z,1.60
2023-02-17T16:49:32.900Z,1.40
2023-02-17T16:52:02.117Z,1.60
2023-02-17T16:54:29.284Z,1.90
2023-02-17T16:56:56.485Z,2.20
2023-02-17T16:59:24.725Z,2.28
2023-02-17T17:01:53.457Z,2.35
2023-02-17T17:04:21.567Z,2.90
2023-02-17T17:06:50.593Z,1.95
2023-02-17T17:09:21.726Z,2.15
2023-02-17T17:11:49.157Z,2.72
2023-02-17T17:14:16.411Z,2.88
2023-02-17T17:16:50.705Z,2.67
2023-02-17T17:19:17.589Z,2.60
2023-02-17T17:21:44.487Z,2.40
2023-02-17T17:24:11.349Z,2.45
2023-02-17T17:26:41.761Z,3.00
2023-02-17T17:29:11.230Z,2.67
2023-02-17T17:31:38.422Z,2.92
2023-02-17T17:34:05.533Z,2.30
2023-02-17T17:36:41.337Z,2.10
2023-02-17T17:39:16.969Z,1.98
2023-02-17T17:41:44.801Z,2.15
2023-02-17T17:44:11.694Z,2.80
2023-02-17T17:46:44.478Z,2.50
2023-02-17T17:49:20.068Z,2.60
2023-02-17T17:51:55.879Z,2.80
2023-02-17T17:54:28.837Z,2.50
2023-02-17T17:57:01.445Z,2.25
2023-02-17T17:59:32.795Z,2.63
2023-02-17T18:01:59.732Z,2.45
2023-02-17T18:04:27.514Z,2.72
2023-02-17T18:06:55.584Z,2.35
2023-02-17T18:09:31.818Z,2.60
2023-02-17T18:12:03.855Z,2.50
2023-02-17T18:14:31.026Z,2.30
2023-02-17T18:16:58.382Z,2.17
2023-02-17T18:19:25.783Z,2.50
2023-02-17T18:21:52.658Z,2.97
2023-02-17T18:24:19.676Z,2.63
2023-02-17T18:26:46.862Z,2.40
2023-02-17T18:29:18.866Z,2.67
2023-02-17T18:31:46.008Z,2.20
2023-02-17T18:34:12.887Z,2.33
2023-02-17T18:36:39.651Z,2.35
2023-02-17T18:39:06.417Z,3.03
2023-02-17T18:41:38.426Z,2.80
2023-02-17T18:44:05.939Z,2.60
2023-02-17T18:46:33.776Z,2.50
2023-02-17T18:49:01.365Z,2.97
2023-02-17T18:51:32.560Z,2.80
2023-02-17T18:54:00.205Z,2.42
2023-02-17T18:56:29.666Z,2.42
2023-02-17T18:58:57.529Z,2.72
2023-02-17T19:01:30.548Z,3.10
2023-02-17T19:03:58.293Z,2.47
2023-02-17T19:06:28.725Z,2.42
2023-02-17T19:08:59.711Z,2.50
2023-02-17T19:11:27.108Z,2.60
2023-02-17T19:13:54.204Z,2.60
2023-02-17T19:16:24.612Z,2.38
2023-02-17T19:18:51.896Z,2.90
2023-02-17T19:21:19.080Z,2.90
2023-02-17T19:23:46.242Z,2.70
2023-02-17T19:26:14.234Z,2.50
2023-02-17T19:28:41.963Z,2.53
2023-02-17T19:31:14.638Z,2.30
2023-02-17T19:33:41.930Z,2.67
2023-02-17T19:36:14.525Z,2.28
2023-02-17T19:38:41.266Z,3.00
2023-02-17T19:41:10.275Z,2.60
2023-02-17T19:43:37.306Z,2.03
2023-02-17T19:46:04.810Z,2.30
2023-02-17T19:48:32.026Z,2.10
2023-02-17T19:51:01.315Z,2.17
2023-02-17T19:53:28.757Z,2.47
2023-02-17T19:55:55.503Z,2.60
2023-02-17T19:58:22.695Z,2.80
2023-02-17T20:00:49.816Z,2.60
2023-02-17T20:03:17.243Z,2.30
2023-02-17T20:05:44.121Z,2.55
2023-02-17T20:08:10.826Z,2.95
2023-02-17T20:10:40.064Z,2.70
2023-02-17T20:13:07.322Z,2.60
2023-02-17T20:15:34.466Z,2.83
2023-02-17T20:18:01.176Z,2.63
2023-02-17T20:20:27.890Z,2.83
2023-02-17T20:22:55.277Z,2.65
2023-02-17T20:25:21.933Z,2.60
2023-02-17T20:27:49.132Z,2.78
2023-02-17T20:30:15.935Z,2.88
2023-02-17T20:32:42.595Z,2.80
2023-02-17T20:35:13.243Z,3.03
2023-02-17T20:37:39.978Z,2.85
2023-02-17T20:40:07.568Z,2.95
2023-02-17T20:42:34.485Z,3.70
2023-02-17T20:45:01.591Z,3.13
2023-02-17T20:47:29.595Z,3.20
2023-02-17T20:49:56.264Z,3.42
2023-02-17T20:52:22.981Z,3.13
2023-02-17T20:54:49.898Z,3.35
2023-02-17T20:57:17.121Z,3.30
2023-02-17T20:59:43.853Z,3.60
2023-02-17T21:02:11.425Z,3.58
2023-02-17T21:04:38.173Z,3.60
2023-02-17T21:07:05.024Z,3.38
2023-02-17T21:09:31.860Z,3.40
2023-02-17T21:11:58.511Z,3.80
2023-02-17T21:14:25.508Z,3.65
2023-02-17T21:16:52.078Z,3.83
2023-02-17T21:19:20.062Z,3.95
2023-02-17T21:21:46.909Z,4.00
2023-02-17T21:24:14.214Z,4.13
2023-02-17T21:26:41.158Z,4.57
2023-02-17T21:29:08.285Z,4.18
2023-02-17T21:31:36.811Z,4.35
2023-02-17T21:34:08.702Z,4.55
2023-02-17T21:36:35.632Z,4.10
2023-02-17T21:39:05.261Z,4.53
2023-02-17T21:41:37.493Z,4.50
2023-02-17T21:44:23.302Z,4.90
2023-02-17T21:46:50.244Z,4.75
2023-02-17T21:49:17.124Z,5.38
2023-02-17T21:51:44.399Z,5.70
2023-02-17T21:54:11.698Z,5.00
2023-02-17T21:56:38.919Z,5.38
2023-02-17T21:59:06.094Z,5.80
2023-02-17T22:01:32.956Z,5.43
2023-02-17T22:03:59.926Z,5.57
2023-02-17T22:06:29.747Z,5.82
2023-02-17T22:08:57.967Z,5.53
2023-02-17T22:11:32.708Z,5.53
2023-02-17T22:14:02.320Z,5.78
2023-02-17T22:16:31.580Z,6.15
2023-02-17T22:19:02.729Z,5.57
2023-02-17T22:21:29.720Z,5.60
2023-02-17T22:23:58.717Z,5.60
2023-02-17T22:26:26.549Z,5.75
2023-02-17T22:28:53.904Z,5.80
2023-02-17T22:31:23.313Z,5.97
2023-02-17T22:33:50.055Z,5.82
2023-02-17T22:36:20.399Z,6.10
2023-02-17T22:38:47.940Z,5.90
2023-02-17T22:41:19.765Z,6.15
2023-02-17T22:43:48.276Z,6.00
2023-02-17T22:46:16.917Z,6.53
2023-02-17T22:48:45.674Z,6.38
2023-02-17T22:51:14.830Z,7.07
2023-02-17T22:53:42.369Z,6.63
2023-02-17T22:56:09.446Z,6.65
2023-02-17T22:58:37.071Z,7.30
2023-02-17T23:01:21.003Z,7.00
2023-02-17T23:03:54.310Z,6.87
2023-02-17T23:06:28.254Z,6.95
2023-02-17T23:08:56.002Z,7.47
2023-02-17T23:11:47.632Z,7.30
2023-02-17T23:14:15.495Z,7.38
2023-02-17T23:16:42.416Z,7.75
2023-02-17T23:19:11.216Z,8.20
2023-02-17T23:21:42.021Z,7.63
2023-02-17T23:24:09.889Z,7.50
2023-02-17T23:26:36.686Z,7.15
2023-02-17T23:29:03.687Z,7.35
2023-02-17T23:31:30.557Z,7.35
2023-02-17T23:33:57.346Z,7.55
2023-02-17T23:36:24.737Z,7.95
2023-02-17T23:38:51.742Z,7.30
2023-02-17T23:41:18.408Z,6.50
2023-02-17T23:43:45.043Z,7.68
2023-02-17T23:46:12.276Z,7.43
2023-02-17T23:48:39.157Z,7.25
2023-02-17T23:51:06.139Z,7.85
2023-02-17T23:53:33.780Z,7.43
2023-02-17T23:56:09.557Z,7.45
2023-02-17T23:58:36.824Z,6.93
